createdAt,value
2022-11-01T00:01:22.231Z,68.59
2022-11-01T00:03:48.592Z,67.93
2022-11-01T00:06:14.893Z,68.27
2022-11-01T00:08:41.217Z,68.27
2022-11-01T00:11:08.376Z,68.31
2022-11-01T00:13:34.681Z,68.48
2022-11-01T00:16:01.013Z,67.79
2022-11-01T00:18:27.337Z,67.67
2022-11-01T00:20:53.664Z,67.84
2022-11-01T00:23:20.012Z,68.25
2022-11-01T00:25:46.324Z,68.25
2022-11-01T00:28:12.652Z,67.85
2022-11-01T00:30:39.179Z,68.36
2022-11-01T00:33:05.510Z,67.80
2022-11-01T00:35:31.916Z,67.77
2022-11-01T00:37:58.537Z,68.19
2022-11-01T00:40:24.941Z,68.14
2022-11-01T00:42:51.261Z,68.26
2022-11-01T00:45:17.676Z,67.87
2022-11-01T00:47:43.983Z,68.11
2022-11-01T00:50:10.294Z,67.70
2022-11-01T00:52:36.620Z,67.89
2022-11-01T00:55:02.924Z,67.88
2022-11-01T00:57:29.237Z,68.21
2022-11-01T00:59:55.547Z,68.03
2022-11-01T01:02:21.937Z,68.09
2022-11-01T01:04:49.096Z,68.03
2022-11-01T01:07:15.399Z,68.02
2022-11-01T01:09:41.713Z,67.76
2022-11-01T01:12:08.035Z,68.07
2022-11-01T01:14:34.372Z,68.07
2022-11-01T01:17:00.755Z,67.70
2022-11-01T01:19:28.147Z,67.86
2022-11-01T01:21:54.467Z,68.01
2022-11-01T01:24:20.777Z,68.08
2022-11-01T01:26:47.096Z,67.92
2022-11-01T01:29:13.426Z,67.96
2022-11-01T01:31:39.746Z,67.71
2022-11-01T01:34:06.291Z,67.50
2022-11-01T01:36:32.607Z,68.11
2022-11-01T01:38:58.953Z,67.89
2022-11-01T01:41:43.775Z,68.04
2022-11-01T01:44:28.716Z,67.81
2022-11-01T01:46:55.028Z,68.15
2022-11-01T01:49:21.359Z,67.59
2022-11-01T01:51:47.686Z,67.90
2022-11-01T01:54:14.002Z,67.98
2022-11-01T01:56:40.315Z,68.18
2022-11-01T01:59:07.104Z,68.08
2022-11-01T02:01:33.980Z,68.09
2022-11-01T02:04:00.363Z,67.90
2022-11-01T02:06:26.698Z,67.85
2022-11-01T02:08:53.556Z,67.98
2022-11-01T02:11:19.892Z,67.65
2022-11-01T02:13:46.205Z,67.94
2022-11-01T02:16:15.039Z,67.66
2022-11-01T02:18:41.273Z,67.71
2022-11-01T02:21:18.697Z,67.87
2022-11-01T02:23:44.940Z,68.08
2022-11-01T02:26:19.505Z,68.09
2022-11-01T02:28:50.846Z,68.26
2022-11-01T02:31:26.595Z,68.40
2022-11-01T02:33:54.948Z,68.23
2022-11-01T02:36:47.494Z,68.23
2022-11-01T02:39:20.256Z,67.89
2022-11-01T02:41:51.086Z,67.71
2022-11-01T02:44:18.841Z,67.60
2022-11-01T02:47:03.423Z,67.97
2022-11-01T02:49:34.251Z,67.97
2022-11-01T02:52:00.572Z,67.47
2022-11-01T02:54:47.107Z,67.88
2022-11-01T02:57:26.333Z,67.96
2022-11-01T02:59:52.665Z,68.16
2022-11-01T03:02:21.247Z,67.62
2022-11-01T03:04:47.564Z,68.21
2022-11-01T03:07:13.920Z,67.80
2022-11-01T03:09:40.283Z,67.80
2022-11-01T03:12:06.998Z,68.36
2022-11-01T03:14:39.672Z,68.00
2022-11-01T03:17:07.607Z,68.05
2022-11-01T03:19:50.326Z,68.09
2022-11-01T03:22:35.458Z,67.92
2022-11-01T03:25:37.247Z,67.87
2022-11-01T03:28:08.151Z,68.02
2022-11-01T03:30:34.480Z,67.98
2022-11-01T03:33:01.054Z,68.02
2022-11-01T03:35:29.019Z,68.42
2022-11-01T03:37:56.542Z,68.11
2022-11-01T03:40:23.444Z,67.91
2022-11-01T03:42:50.128Z,67.80
2022-11-01T03:45:17.018Z,67.84
2022-11-01T03:47:43.373Z,67.84
2022-11-01T03:50:17.008Z,67.57
2022-11-01T03:52:43.360Z,67.69
2022-11-01T03:55:18.677Z,68.12
2022-11-01T03:57:48.696Z,68.20
2022-11-01T04:00:15.510Z,68.03
2022-11-01T04:02:43.129Z,68.34
2022-11-01T04:05:10.204Z,68.47
2022-11-01T04:07:36.513Z,68.40
2022-11-01T04:10:02.835Z,68.33
2022-11-01T04:12:29.154Z,67.83
2022-11-01T04:15:14.315Z,68.17
2022-11-01T04:17:59.160Z,67.95
2022-11-01T04:20:34.408Z,68.08
2022-11-01T04:23:01.740Z,68.35
2022-11-01T04:25:28.272Z,68.13
2022-11-01T04:27:57.659Z,68.33
2022-11-01T04:30:24.272Z,68.45
2022-11-01T04:32:50.576Z,67.80
2022-11-01T04:35:16.903Z,67.70
2022-11-01T04:37:43.213Z,68.00
2022-11-01T04:40:09.849Z,68.11
2022-11-01T04:42:36.353Z,67.88
2022-11-01T04:45:03.004Z,67.94
2022-11-01T04:47:29.317Z,68.01
2022-11-01T04:49:55.641Z,67.94
2022-11-01T04:52:21.996Z,67.77
2022-11-01T04:54:48.308Z,68.25
2022-11-01T04:57:24.250Z,68.42
2022-11-01T04:59:53.950Z,68.21
2022-11-01T05:02:20.569Z,67.96
2022-11-01T05:04:46.952Z,67.82
2022-11-01T05:07:13.502Z,68.08
2022-11-01T05:09:39.903Z,67.92
2022-11-01T05:12:06.261Z,68.14
2022-11-01T05:14:32.612Z,68.41
2022-11-01T05:16:58.925Z,67.89
2022-11-01T05:19:25.242Z,68.66
2022-11-01T05:21:51.553Z,68.48
2022-11-01T05:24:17.888Z,68.32
2022-11-01T05:26:44.444Z,68.34
2022-11-01T05:29:24.444Z,68.09
2022-11-01T05:31:57.051Z,68.79
2022-11-01T05:34:23.374Z,68.80
2022-11-01T05:36:49.704Z,68.73
2022-11-01T05:39:16.019Z,68.24
2022-11-01T05:41:42.345Z,67.86
2022-11-01T05:44:08.668Z,68.33
2022-11-01T05:46:34.992Z,67.56
2022-11-01T05:49:01.328Z,67.04
2022-11-01T05:51:27.653Z,67.02
2022-11-01T05:53:53.968Z,68.22
2022-11-01T05:56:20.300Z,68.68
2022-11-01T05:58:46.649Z,67.54
2022-11-01T06:01:13.051Z,67.03
2022-11-01T06:03:39.461Z,67.35
2022-11-01T06:06:05.836Z,67.71
2022-11-01T06:08:32.191Z,67.49
2022-11-01T06:11:02.823Z,68.17
2022-11-01T06:13:29.933Z,67.92
2022-11-01T06:15:59.796Z,68.62
2022-11-01T06:18:26.117Z,68.18
2022-11-01T06:20:52.666Z,68.58
2022-11-01T06:23:18.989Z,68.24
2022-11-01T06:25:45.346Z,67.76
2022-11-01T06:28:11.678Z,67.20
2022-11-01T06:30:41.373Z,67.07
2022-11-01T06:33:09.430Z,67.34
2022-11-01T06:35:35.770Z,66.98
2022-11-01T06:38:06.722Z,66.72
2022-11-01T06:40:36.521Z,66.47
2022-11-01T06:43:03.716Z,66.21
2022-11-01T06:45:30.513Z,66.30
2022-11-01T06:47:56.849Z,66.22
2022-11-01T06:50:23.205Z,65.86
2022-11-01T06:52:49.536Z,65.62
2022-11-01T06:55:15.882Z,65.94
2022-11-01T06:57:42.209Z,66.28
2022-11-01T07:00:09.292Z,66.79
2022-11-01T07:02:35.811Z,67.11
2022-11-01T07:05:02.219Z,67.37
2022-11-01T07:07:28.544Z,67.18
2022-11-01T07:09:54.860Z,66.83
2022-11-01T07:12:21.177Z,66.95
2022-11-01T07:14:47.523Z,66.92
2022-11-01T07:17:13.859Z,66.93
2022-11-01T07:19:40.189Z,66.92
2022-11-01T07:22:06.658Z,66.83
2022-11-01T07:24:32.998Z,67.35
2022-11-01T07:26:59.313Z,66.98
2022-11-01T07:29:25.634Z,67.31
2022-11-01T07:31:51.955Z,67.62
2022-11-01T07:34:18.272Z,67.25
2022-11-01T07:36:44.587Z,66.59
2022-11-01T07:39:10.916Z,67.29
2022-11-01T07:41:37.221Z,66.77
2022-11-01T07:44:03.787Z,66.83
2022-11-01T07:46:30.866Z,67.17
2022-11-01T07:48:57.243Z,67.95
2022-11-01T07:51:23.555Z,68.25
2022-11-01T07:53:49.921Z,68.15
2022-11-01T07:56:16.303Z,67.71
2022-11-01T07:58:43.569Z,68.31
2022-11-01T08:01:10.646Z,68.38
2022-11-01T08:03:37.151Z,68.53
2022-11-01T08:06:03.475Z,68.42
2022-11-01T08:08:29.791Z,68.43
2022-11-01T08:10:56.092Z,68.63
2022-11-01T08:13:23.036Z,68.69
2022-11-01T08:15:49.527Z,68.39
2022-11-01T08:18:16.192Z,68.25
2022-11-01T08:20:42.556Z,68.21
2022-11-01T08:23:08.884Z,67.99
2022-11-01T08:25:35.233Z,68.42
2022-11-01T08:28:05.218Z,66.59
2022-11-01T08:30:31.611Z,65.55
2022-11-01T08:33:01.600Z,66.16
2022-11-01T08:35:28.247Z,66.39
2022-11-01T08:37:54.561Z,66.62
2022-11-01T08:40:24.001Z,66.78
2022-11-01T08:42:50.469Z,66.74
2022-11-01T08:45:16.922Z,67.05
2022-11-01T08:47:43.240Z,67.32
2022-11-01T08:50:11.266Z,67.13
2022-11-01T08:52:37.859Z,67.23
2022-11-01T08:55:04.269Z,67.53
2022-11-01T08:57:30.580Z,67.20
2022-11-01T08:59:56.892Z,67.35
2022-11-01T09:02:23.325Z,67.52
2022-11-01T09:04:49.711Z,66.85
2022-11-01T09:07:16.018Z,67.61
2022-11-01T09:09:42.327Z,67.59
2022-11-01T09:12:12.361Z,67.83
2022-11-01T09:14:40.713Z,67.41
2022-11-01T09:17:07.020Z,67.51
2022-11-01T09:19:33.327Z,67.48
2022-11-01T09:21:59.700Z,67.85
2022-11-01T09:24:26.007Z,67.75
2022-11-01T09:26:52.365Z,67.74
2022-11-01T09:29:18.923Z,67.73
2022-11-01T09:31:45.242Z,67.83
2022-11-01T09:34:12.031Z,67.86
2022-11-01T09:36:38.397Z,67.63
2022-11-01T09:39:04.724Z,67.88
2022-11-01T09:41:35.557Z,67.95
2022-11-01T09:44:02.177Z,68.23
2022-11-01T09:46:31.190Z,68.12
2022-11-01T09:48:58.820Z,68.21
2022-11-01T09:51:25.692Z,68.24
2022-11-01T09:53:53.037Z,67.78
2022-11-01T09:56:24.396Z,67.86
2022-11-01T09:59:09.484Z,67.74
2022-11-01T10:01:48.376Z,68.02
2022-11-01T10:04:21.312Z,67.70
2022-11-01T10:07:11.107Z,67.65
2022-11-01T10:09:41.417Z,67.35
2022-11-01T10:12:10.318Z,67.86
2022-11-01T10:14:54.645Z,68.33
2022-11-01T10:17:24.854Z,68.48
2022-11-01T10:20:00.432Z,68.81
2022-11-01T10:22:33.989Z,68.44
2022-11-01T10:25:07.775Z,68.64
2022-11-01T10:27:44.001Z,68.62
2022-11-01T10:30:14.586Z,68.70
2022-11-01T10:32:40.873Z,67.85
2022-11-01T10:35:12.196Z,67.92
2022-11-01T10:37:51.888Z,67.56
2022-11-01T10:40:30.196Z,67.22
2022-11-01T10:42:57.702Z,66.83
2022-11-01T10:45:24.258Z,66.60
2022-11-01T10:47:54.066Z,66.74
2022-11-01T10:50:24.168Z,66.98
2022-11-01T10:53:03.256Z,66.93
2022-11-01T10:55:31.606Z,66.87
2022-11-01T10:58:15.143Z,66.69
2022-11-01T11:00:41.728Z,66.71
2022-11-01T11:03:12.758Z,66.85
2022-11-01T11:05:39.105Z,67.04
2022-11-01T11:08:07.342Z,66.17
2022-11-01T11:10:33.711Z,66.02
2022-11-01T11:13:01.195Z,65.75
2022-11-01T11:15:35.585Z,66.17
2022-11-01T11:18:02.187Z,66.16
2022-11-01T11:20:30.429Z,66.17
2022-11-01T11:22:56.986Z,66.22
2022-11-01T11:25:27.295Z,66.26
2022-11-01T11:27:53.674Z,65.99
2022-11-01T11:30:26.984Z,66.27
2022-11-01T11:32:53.839Z,66.26
2022-11-01T11:35:20.581Z,66.14
2022-11-01T11:37:50.920Z,66.28
2022-11-01T11:40:26.865Z,66.22
2022-11-01T11:42:56.635Z,66.68
2022-11-01T11:45:27.296Z,67.08
2022-11-01T11:47:53.941Z,66.78
2022-11-01T11:50:20.548Z,66.60
2022-11-01T11:52:50.462Z,66.90
2022-11-01T11:55:32.101Z,67.08
2022-11-01T11:57:58.469Z,66.77
2022-11-01T12:00:24.986Z,66.86
2022-11-01T12:02:51.388Z,66.63
2022-11-01T12:05:18.425Z,66.91
2022-11-01T12:07:45.342Z,66.21
2022-11-01T12:10:28.888Z,66.73
2022-11-01T12:12:56.823Z,66.10
2022-11-01T12:15:38.438Z,65.95
2022-11-01T12:18:25.646Z,66.39
2022-11-01T12:20:52.000Z,66.29
2022-11-01T12:23:26.625Z,66.14
2022-11-01T12:25:52.979Z,66.20
2022-11-01T12:28:25.068Z,66.04
2022-11-01T12:30:51.465Z,66.41
2022-11-01T12:33:27.850Z,66.25
2022-11-01T12:35:57.093Z,65.98
2022-11-01T12:38:28.683Z,65.97
2022-11-01T12:40:55.034Z,65.88
2022-11-01T12:43:22.759Z,66.03
2022-11-01T12:45:52.039Z,64.92
2022-11-01T12:48:47.889Z,64.49
2022-11-01T12:51:20.681Z,65.77
2022-11-01T12:53:59.279Z,66.33
2022-11-01T12:56:25.799Z,66.33
2022-11-01T12:58:52.736Z,66.52
2022-11-01T13:01:24.609Z,66.34
2022-11-01T13:04:08.165Z,66.10
2022-11-01T13:06:48.318Z,66.54
2022-11-01T13:09:26.070Z,66.54
2022-11-01T13:11:59.947Z,66.53
2022-11-01T13:14:39.061Z,66.10
2022-11-01T13:17:09.578Z,66.43
2022-11-01T13:19:44.966Z,66.37
2022-11-01T13:22:17.328Z,66.24
2022-11-01T13:25:04.941Z,66.36
2022-11-01T13:27:44.546Z,66.51
2022-11-01T13:30:14.359Z,66.06
2022-11-01T13:32:55.908Z,66.51
2022-11-01T13:35:34.497Z,66.06
2022-11-01T13:38:19.245Z,65.92
2022-11-01T13:40:51.533Z,67.18
2022-11-01T13:43:19.592Z,67.79
2022-11-01T13:45:50.206Z,68.04
2022-11-01T13:48:23.119Z,67.56
2022-11-01T13:50:52.488Z,68.12
2022-11-01T13:53:32.104Z,68.50
2022-11-01T13:56:02.834Z,68.31
2022-11-01T13:58:29.149Z,68.25
2022-11-01T14:00:56.198Z,68.52
2022-11-01T14:03:32.620Z,68.88
2022-11-01T14:06:08.310Z,67.96
2022-11-01T14:08:37.400Z,67.25
2022-11-01T14:11:03.769Z,67.35
2022-11-01T14:13:34.415Z,66.69
2022-11-01T14:16:01.455Z,66.51
2022-11-01T14:18:27.785Z,66.62
2022-11-01T14:20:54.610Z,66.64
2022-11-01T14:23:31.396Z,66.45
2022-11-01T14:26:16.709Z,66.67
2022-11-01T14:28:43.280Z,66.29
2022-11-01T14:31:09.654Z,66.11
2022-11-01T14:33:35.968Z,66.24
2022-11-01T14:36:02.351Z,66.41
2022-11-01T14:38:31.870Z,66.00
2022-11-01T14:40:58.800Z,65.96
2022-11-01T14:43:44.068Z,66.18
2022-11-01T14:46:14.283Z,66.81
2022-11-01T14:48:51.417Z,67.00
2022-11-01T14:51:25.140Z,66.85
2022-11-01T14:54:13.571Z,67.08
2022-11-01T14:56:41.349Z,67.04
2022-11-01T14:59:11.259Z,67.27
2022-11-01T15:01:42.104Z,66.83
2022-11-01T15:04:11.443Z,66.88
2022-11-01T15:06:39.929Z,66.83
2022-11-01T15:09:06.310Z,66.88
2022-11-01T15:11:33.528Z,67.20
2022-11-01T15:14:01.129Z,66.95
2022-11-01T15:16:28.699Z,67.22
2022-11-01T15:18:56.269Z,67.19
2022-11-01T15:21:25.751Z,67.37
2022-11-01T15:23:55.760Z,67.11
2022-11-01T15:26:23.747Z,67.60
2022-11-01T15:28:57.594Z,67.65
2022-11-01T15:31:23.904Z,66.92
2022-11-01T15:33:51.850Z,67.61
2022-11-01T15:36:23.192Z,67.93
2022-11-01T15:38:50.971Z,67.48
2022-11-01T15:42:07.731Z,67.75
2022-11-01T15:44:34.051Z,67.69
2022-11-01T15:47:00.942Z,67.69
2022-11-01T15:49:28.676Z,67.80
2022-11-01T15:51:59.612Z,68.20
2022-11-01T15:54:47.841Z,68.64
2022-11-01T15:57:21.161Z,68.20
2022-11-01T16:00:01.104Z,68.36
2022-11-01T16:02:32.155Z,68.20
2022-11-01T16:04:58.563Z,67.91
2022-11-01T16:07:24.900Z,68.00
2022-11-01T16:09:52.452Z,67.87
2022-11-01T16:12:31.958Z,67.63
2022-11-01T16:14:58.756Z,67.58
2022-11-01T16:17:26.085Z,67.41
2022-11-01T16:19:52.738Z,67.38
2022-11-01T16:22:33.339Z,67.43
2022-11-01T16:25:03.580Z,67.58
2022-11-01T16:27:29.991Z,68.08
2022-11-01T16:29:56.327Z,67.40
2022-11-01T16:32:23.363Z,67.32
2022-11-01T16:34:49.685Z,67.26
2022-11-01T16:37:25.628Z,67.40
2022-11-01T16:39:52.155Z,67.89
2022-11-01T16:42:18.983Z,67.17
2022-11-01T16:44:45.499Z,66.72
2022-11-01T16:47:14.985Z,66.99
2022-11-01T16:49:45.038Z,67.21
2022-11-01T16:52:11.352Z,67.23
2022-11-01T16:54:37.681Z,67.59
2022-11-01T16:57:04.013Z,67.23
2022-11-01T16:59:32.702Z,67.15
2022-11-01T17:01:59.140Z,67.38
2022-11-01T17:04:26.846Z,66.96
2022-11-01T17:06:53.204Z,67.23
2022-11-01T17:09:22.671Z,67.08
2022-11-01T17:11:51.813Z,67.18
2022-11-01T17:14:18.450Z,67.06
2022-11-01T17:16:46.177Z,67.99
2022-11-01T17:19:17.335Z,68.48
2022-11-01T17:21:44.185Z,68.10
2022-11-01T17:24:10.509Z,68.32
2022-11-01T17:26:37.369Z,68.46
2022-11-01T17:29:03.716Z,68.38
2022-11-01T17:31:30.391Z,67.84
2022-11-01T17:33:56.802Z,68.81
2022-11-01T17:36:23.115Z,68.88
2022-11-01T17:38:50.277Z,68.75
2022-11-01T17:41:18.008Z,68.93
2022-11-01T17:43:44.337Z,69.36
2022-11-01T17:46:13.906Z,68.74
2022-11-01T17:48:40.228Z,69.19
2022-11-01T17:51:06.700Z,69.22
2022-11-01T17:53:33.087Z,69.34
2022-11-01T17:55:59.401Z,69.22
2022-11-01T17:58:25.763Z,69.31
2022-11-01T18:00:52.225Z,69.40
2022-11-01T18:03:18.681Z,69.63
2022-11-01T18:05:44.990Z,69.53
2022-11-01T18:08:17.856Z,69.51
2022-11-01T18:10:55.285Z,69.30
2022-11-01T18:13:33.778Z,69.62
2022-11-01T18:16:05.324Z,69.46
2022-11-01T18:18:34.939Z,69.22
2022-11-01T18:21:08.195Z,69.65
2022-11-01T18:23:34.594Z,69.73
2022-11-01T18:26:00.940Z,69.65
2022-11-01T18:28:27.669Z,69.30
2022-11-01T18:30:54.832Z,69.55
2022-11-01T18:33:27.846Z,69.58
2022-11-01T18:35:55.916Z,69.69
2022-11-01T18:38:25.172Z,69.59
2022-11-01T18:40:56.746Z,69.58
2022-11-01T18:43:23.519Z,69.63
2022-11-01T18:46:19.178Z,69.43
2022-11-01T18:48:37.343Z,64.32
2022-11-01T18:51:05.775Z,58.48
2022-11-01T18:53:32.529Z,57.71
2022-11-01T18:56:11.564Z,58.25
2022-11-01T18:58:38.248Z,59.02
2022-11-01T19:01:33.793Z,57.49
2022-11-01T19:04:10.973Z,57.40
2022-11-01T19:06:37.289Z,56.72
2022-11-01T19:09:14.171Z,56.29
2022-11-01T19:11:40.494Z,56.22
2022-11-01T19:14:08.989Z,55.50
2022-11-01T19:16:36.101Z,56.61
2022-11-01T19:19:02.440Z,55.84
2022-11-01T19:21:31.900Z,55.84
2022-11-01T19:23:58.240Z,55.29
2022-11-01T19:26:35.342Z,55.41
2022-11-01T19:29:06.184Z,56.40
2022-11-01T19:31:33.152Z,57.64
2022-11-01T19:34:00.705Z,58.86
2022-11-01T19:36:45.323Z,59.75
2022-11-01T19:39:17.264Z,59.10
2022-11-01T19:41:44.851Z,60.26
2022-11-01T19:44:16.565Z,60.69
2022-11-01T19:46:42.914Z,60.54
2022-11-01T19:49:24.845Z,61.02
2022-11-01T19:51:56.867Z,61.35
2022-11-01T19:54:23.200Z,61.66
2022-11-01T19:56:50.012Z,61.43
2022-11-01T19:59:16.350Z,61.65
2022-11-01T20:01:45.247Z,62.31
2022-11-01T20:04:27.001Z,62.17
2022-11-01T20:06:55.151Z,62.58
2022-11-01T20:09:22.460Z,63.25
2022-11-01T20:11:48.913Z,62.61
2022-11-01T20:14:15.249Z,63.07
2022-11-01T20:16:41.558Z,63.21
2022-11-01T20:19:08.985Z,63.42
2022-11-01T20:21:37.023Z,63.55
2022-11-01T20:24:03.947Z,63.31
2022-11-01T20:26:30.579Z,63.82
2022-11-01T20:28:57.093Z,63.74
2022-11-01T20:31:25.675Z,63.86
2022-11-01T20:33:52.759Z,63.68
2022-11-01T20:36:19.193Z,63.71
2022-11-01T20:38:45.959Z,63.92
2022-11-01T20:41:12.995Z,64.26
2022-11-01T20:43:39.378Z,64.31
2022-11-01T20:46:05.705Z,64.08
2022-11-01T20:48:32.069Z,64.26
2022-11-01T20:51:01.558Z,64.66
2022-11-01T20:53:29.913Z,64.48
2022-11-01T20:55:56.405Z,64.77
2022-11-01T20:58:22.761Z,64.59
2022-11-01T21:00:50.210Z,65.10
2022-11-01T21:03:17.600Z,65.18
2022-11-01T21:05:44.409Z,65.05
2022-11-01T21:08:10.656Z,65.09
2022-11-01T21:10:37.519Z,65.14
2022-11-01T21:13:07.296Z,64.66
2022-11-01T21:15:34.076Z,65.03
2022-11-01T21:18:09.600Z,65.04
2022-11-01T21:20:36.513Z,64.83
2022-11-01T21:23:13.156Z,65.07
2022-11-01T21:25:39.473Z,65.08
2022-11-01T21:28:12.178Z,65.11
2022-11-01T21:30:38.640Z,65.25
2022-11-01T21:33:13.475Z,65.02
2022-11-01T21:35:40.938Z,64.95
2022-11-01T21:38:25.860Z,65.19
2022-11-01T21:40:52.353Z,65.22
2022-11-01T21:43:23.022Z,65.31
2022-11-01T21:45:49.359Z,65.41
2022-11-01T21:48:35.911Z,65.47
2022-11-01T21:51:02.273Z,65.37
2022-11-01T21:53:28.624Z,65.61
2022-11-01T21:55:54.941Z,65.43
2022-11-01T21:58:21.912Z,65.60
2022-11-01T22:00:48.244Z,65.39
2022-11-01T22:03:14.571Z,65.58
2022-11-01T22:05:40.871Z,65.59
2022-11-01T22:08:07.205Z,65.57
2022-11-01T22:10:33.587Z,65.59
2022-11-01T22:13:06.362Z,65.62
2022-11-01T22:15:33.050Z,65.51
2022-11-01T22:17:59.380Z,65.92
2022-11-01T22:20:25.701Z,65.66
2022-11-01T22:22:52.086Z,65.64
2022-11-01T22:25:18.387Z,65.55
2022-11-01T22:27:44.709Z,66.03
2022-11-01T22:30:11.194Z,66.07
2022-11-01T22:32:37.528Z,66.36
2022-11-01T22:35:03.856Z,66.30
2022-11-01T22:37:30.382Z,66.22
2022-11-01T22:39:56.698Z,66.22
2022-11-01T22:42:23.248Z,66.69
2022-11-01T22:44:49.584Z,66.18
2022-11-01T22:47:23.787Z,66.36
2022-11-01T22:49:51.233Z,66.17
2022-11-01T22:52:26.884Z,65.83
2022-11-01T22:54:53.503Z,66.43
2022-11-01T22:57:23.475Z,66.12
2022-11-01T22:59:56.288Z,66.32
2022-11-01T23:02:22.877Z,66.72
2022-11-01T23:04:49.327Z,66.31
2022-11-01T23:07:20.793Z,66.26
2022-11-01T23:09:47.134Z,66.45
2022-11-01T23:12:37.326Z,66.24
2022-11-01T23:15:03.737Z,66.27
2022-11-01T23:17:32.304Z,66.57
2022-11-01T23:20:00.282Z,66.37
2022-11-01T23:22:29.694Z,66.11
2022-11-01T23:24:56.011Z,66.39
2022-11-01T23:27:23.861Z,66.29
2022-11-01T23:29:50.890Z,65.77
2022-11-01T23:32:17.196Z,66.22
2022-11-01T23:34:44.327Z,65.84
2022-11-01T23:37:18.261Z,66.05
2022-11-01T23:39:44.588Z,65.82
2022-11-01T23:42:14.428Z,66.34
2022-11-01T23:44:40.780Z,66.24
2022-11-01T23:47:15.230Z,66.00
2022-11-01T23:49:41.553Z,66.27
2022-11-01T23:52:11.672Z,66.01
2022-11-01T23:54:41.975Z,65.84
2022-11-01T23:57:12.137Z,65.99
2022-11-01T23:59:39.167Z,66.16
